sensor_id;sensor_type;location;lat;lon;timestamp;P1;durP1;ratioP1;P2;durP2;ratioP2
32641;SDS011;19323;56.072;9.698;2022-09-17T00:00:41;2.50;;;0.60;;
32641;SDS011;19323;56.072;9.698;2022-09-17T00:03:08;2.90;;;0.55;;
32641;SDS011;19323;56.072;9.698;2022-09-17T00:05:35;2.20;;;0.75;;
32641;SDS011;19323;56.072;9.698;2022-09-17T00:08:06;4.07;;;1.15;;
32641;SDS011;19323;56.072;9.698;2022-09-17T00:10:39;4.95;;;0.98;;
32641;SDS011;19323;56.072;9.698;2022-09-17T00:13:08;2.38;;;0.88;;
32641;SDS011;19323;56.072;9.698;2022-09-17T00:15:41;1.83;;;0.70;;
32641;SDS011;19323;56.072;9.698;2022-09-17T00:18:09;2.55;;;0.90;;
32641;SDS011;19323;56.072;9.698;2022-09-17T00:20:40;2.03;;;0.82;;
32641;SDS011;19323;56.072;9.698;2022-09-17T00:23:09;2.17;;;0.90;;
32641;SDS011;19323;56.072;9.698;2022-09-17T00:25:41;3.30;;;0.63;;
32641;SDS011;19323;56.072;9.698;2022-09-17T00:28:09;2.17;;;0.75;;
32641;SDS011;19323;56.072;9.698;2022-09-17T00:30:41;4.82;;;1.20;;
32641;SDS011;19323;56.072;9.698;2022-09-17T00:33:13;2.92;;;0.82;;
32641;SDS011;19323;56.072;9.698;2022-09-17T00:35:42;2.83;;;1.10;;
32641;SDS011;19323;56.072;9.698;2022-09-17T00:38:09;2.10;;;0.90;;
32641;SDS011;19323;56.072;9.698;2022-09-17T00:40:36;2.75;;;1.02;;
32641;SDS011;19323;56.072;9.698;2022-09-17T00:43:03;1.67;;;0.65;;
32641;SDS011;19323;56.072;9.698;2022-09-17T00:45:34;1.90;;;0.50;;
32641;SDS011;19323;56.072;9.698;2022-09-17T00:48:02;2.20;;;0.75;;
32641;SDS011;19323;56.072;9.698;2022-09-17T00:50:35;2.08;;;0.60;;
32641;SDS011;19323;56.072;9.698;2022-09-17T00:53:05;1.77;;;0.75;;
32641;SDS011;19323;56.072;9.698;2022-09-17T00:55:38;2.42;;;0.82;;
32641;SDS011;19323;56.072;9.698;2022-09-17T00:58:08;3.10;;;0.90;;
32641;SDS011;19323;56.072;9.698;2022-09-17T01:00:37;7.72;;;0.82;;
32641;SDS011;19323;56.072;9.698;2022-09-17T01:03:04;1.85;;;0.82;;
32641;SDS011;19323;56.072;9.698;2022-09-17T01:05:40;3.17;;;0.55;;
32641;SDS011;19323;56.072;9.698;2022-09-17T01:11:08;2.60;;;0.50;;
32641;SDS011;19323;56.072;9.698;2022-09-17T01:25:11;2.35;;;0.77;;
32641;SDS011;19323;56.072;9.698;2022-09-17T01:28:33;2.22;;;0.68;;
32641;SDS011;19323;56.072;9.698;2022-09-17T01:33:59;3.95;;;0.68;;
32641;SDS011;19323;56.072;9.698;2022-09-17T01:39:10;3.88;;;1.00;;
32641;SDS011;19323;56.072;9.698;2022-09-17T01:41:50;4.20;;;1.20;;
32641;SDS011;19323;56.072;9.698;2022-09-17T01:49:36;3.83;;;1.17;;
32641;SDS011;19323;56.072;9.698;2022-09-17T01:52:05;1.63;;;0.50;;
32641;SDS011;19323;56.072;9.698;2022-09-17T01:54:36;2.33;;;0.95;;
32641;SDS011;19323;56.072;9.698;2022-09-17T01:57:13;1.35;;;1.00;;
32641;SDS011;19323;56.072;9.698;2022-09-17T02:02:25;1.85;;;0.73;;
32641;SDS011;19323;56.072;9.698;2022-09-17T02:05:02;1.73;;;0.60;;
32641;SDS011;19323;56.072;9.698;2022-09-17T02:07:46;1.65;;;0.68;;
32641;SDS011;19323;56.072;9.698;2022-09-17T02:10:19;1.90;;;0.82;;
32641;SDS011;19323;56.072;9.698;2022-09-17T02:13:00;1.23;;;0.50;;
32641;SDS011;19323;56.072;9.698;2022-09-17T02:15:35;1.88;;;0.38;;
32641;SDS011;19323;56.072;9.698;2022-09-17T02:18:07;1.70;;;0.70;;
32641;SDS011;19323;56.072;9.698;2022-09-17T02:20:47;3.42;;;0.55;;
32641;SDS011;19323;56.072;9.698;2022-09-17T02:23:22;3.17;;;1.45;;
32641;SDS011;19323;56.072;9.698;2022-09-17T02:25:56;1.60;;;0.47;;
32641;SDS011;19323;56.072;9.698;2022-09-17T02:31:10;1.48;;;0.70;;
32641;SDS011;19323;56.072;9.698;2022-09-17T02:33:38;1.58;;;0.73;;
32641;SDS011;19323;56.072;9.698;2022-09-17T02:36:07;0.85;;;0.40;;
32641;SDS011;19323;56.072;9.698;2022-09-17T02:38:34;1.95;;;0.80;;
32641;SDS011;19323;56.072;9.698;2022-09-17T02:41:04;3.95;;;0.95;;
32641;SDS011;19323;56.072;9.698;2022-09-17T02:43:38;1.65;;;0.60;;
32641;SDS011;19323;56.072;9.698;2022-09-17T02:54:14;1.73;;;0.80;;
32641;SDS011;19323;56.072;9.698;2022-09-17T02:56:48;1.88;;;0.85;;
32641;SDS011;19323;56.072;9.698;2022-09-17T03:00:36;1.65;;;0.38;;
32641;SDS011;19323;56.072;9.698;2022-09-17T03:02:43;1.63;;;0.45;;
32641;SDS011;19323;56.072;9.698;2022-09-17T03:05:13;2.33;;;0.77;;
32641;SDS011;19323;56.072;9.698;2022-09-17T03:07:43;2.25;;;0.85;;
32641;SDS011;19323;56.072;9.698;2022-09-17T03:10:10;2.67;;;0.90;;
32641;SDS011;19323;56.072;9.698;2022-09-17T03:12:36;3.63;;;0.88;;
32641;SDS011;19323;56.072;9.698;2022-09-17T03:15:03;3.78;;;0.93;;
32641;SDS011;19323;56.072;9.698;2022-09-17T03:17:31;2.90;;;0.77;;
32641;SDS011;19323;56.072;9.698;2022-09-17T03:19:57;2.78;;;0.60;;
32641;SDS011;19323;56.072;9.698;2022-09-17T03:22:24;1.77;;;0.63;;
32641;SDS011;19323;56.072;9.698;2022-09-17T03:24:50;2.25;;;0.60;;
32641;SDS011;19323;56.072;9.698;2022-09-17T03:27:17;0.85;;;0.32;;
32641;SDS011;19323;56.072;9.698;2022-09-17T03:29:43;1.52;;;0.63;;
32641;SDS011;19323;56.072;9.698;2022-09-17T03:32:09;2.65;;;0.63;;
32641;SDS011;19323;56.072;9.698;2022-09-17T03:34:36;3.05;;;0.85;;
32641;SDS011;19323;56.072;9.698;2022-09-17T03:37:02;1.38;;;0.43;;
32641;SDS011;19323;56.072;9.698;2022-09-17T03:39:29;1.77;;;0.57;;
32641;SDS011;19323;56.072;9.698;2022-09-17T03:41:55;1.88;;;0.60;;
32641;SDS011;19323;56.072;9.698;2022-09-17T03:44:22;4.88;;;0.60;;
32641;SDS011;19323;56.072;9.698;2022-09-17T03:46:49;3.28;;;0.55;;
32641;SDS011;19323;56.072;9.698;2022-09-17T03:49:16;2.20;;;0.77;;
32641;SDS011;19323;56.072;9.698;2022-09-17T03:51:42;2.80;;;0.80;;
32641;SDS011;19323;56.072;9.698;2022-09-17T03:54:09;1.80;;;0.60;;
32641;SDS011;19323;56.072;9.698;2022-09-17T03:56:35;2.10;;;0.50;;
32641;SDS011;19323;56.072;9.698;2022-09-17T03:59:02;3.88;;;0.80;;
32641;SDS011;19323;56.072;9.698;2022-09-17T04:01:28;1.65;;;0.73;;
32641;SDS011;19323;56.072;9.698;2022-09-17T04:03:55;1.25;;;0.30;;
32641;SDS011;19323;56.072;9.698;2022-09-17T04:06:21;1.42;;;0.40;;
32641;SDS011;19323;56.072;9.698;2022-09-17T04:08:48;1.67;;;0.77;;
32641;SDS011;19323;56.072;9.698;2022-09-17T04:11:14;1.55;;;0.50;;
32641;SDS011;19323;56.072;9.698;2022-09-17T04:13:41;1.45;;;0.38;;
32641;SDS011;19323;56.072;9.698;2022-09-17T04:16:07;1.60;;;0.82;;
32641;SDS011;19323;56.072;9.698;2022-09-17T04:18:34;1.75;;;0.38;;
32641;SDS011;19323;56.072;9.698;2022-09-17T04:21:00;3.28;;;0.77;;
32641;SDS011;19323;56.072;9.698;2022-09-17T04:23:26;1.17;;;0.45;;
32641;SDS011;19323;56.072;9.698;2022-09-17T04:25:53;1.77;;;0.50;;
32641;SDS011;19323;56.072;9.698;2022-09-17T04:28:19;4.22;;;1.00;;
32641;SDS011;19323;56.072;9.698;2022-09-17T04:30:46;2.10;;;0.60;;
32641;SDS011;19323;56.072;9.698;2022-09-17T04:33:13;1.13;;;0.50;;
32641;SDS011;19323;56.072;9.698;2022-09-17T04:35:40;1.08;;;0.40;;
32641;SDS011;19323;56.072;9.698;2022-09-17T04:38:07;1.15;;;0.40;;
32641;SDS011;19323;56.072;9.698;2022-09-17T04:40:34;1.95;;;0.85;;
32641;SDS011;19323;56.072;9.698;2022-09-17T04:43:01;1.30;;;0.30;;
32641;SDS011;19323;56.072;9.698;2022-09-17T04:45:29;1.13;;;0.38;;
32641;SDS011;19323;56.072;9.698;2022-09-17T04:47:58;1.15;;;0.40;;
32641;SDS011;19323;56.072;9.698;2022-09-17T04:50:24;1.55;;;0.47;;
32641;SDS011;19323;56.072;9.698;2022-09-17T04:52:51;1.30;;;0.50;;
32641;SDS011;19323;56.072;9.698;2022-09-17T04:55:17;1.20;;;0.32;;
32641;SDS011;19323;56.072;9.698;2022-09-17T04:57:45;1.30;;;0.50;;
32641;SDS011;19323;56.072;9.698;2022-09-17T05:00:16;2.28;;;0.55;;
32641;SDS011;19323;56.072;9.698;2022-09-17T05:02:44;1.15;;;0.80;;
32641;SDS011;19323;56.072;9.698;2022-09-17T05:05:13;1.17;;;0.40;;
32641;SDS011;19323;56.072;9.698;2022-09-17T05:07:40;1.25;;;0.90;;
32641;SDS011;19323;56.072;9.698;2022-09-17T05:10:08;3.65;;;0.47;;
32641;SDS011;19323;56.072;9.698;2022-09-17T05:12:35;2.67;;;0.40;;
32641;SDS011;19323;56.072;9.698;2022-09-17T05:15:03;2.10;;;0.40;;
32641;SDS011;19323;56.072;9.698;2022-09-17T05:17:30;3.10;;;0.65;;
32641;SDS011;19323;56.072;9.698;2022-09-17T05:19:57;3.30;;;0.70;;
32641;SDS011;19323;56.072;9.698;2022-09-17T05:22:23;2.75;;;0.60;;
32641;SDS011;19323;56.072;9.698;2022-09-17T05:24:50;3.60;;;0.45;;
32641;SDS011;19323;56.072;9.698;2022-09-17T05:27:16;1.20;;;0.40;;
32641;SDS011;19323;56.072;9.698;2022-09-17T05:29:43;2.92;;;0.93;;
32641;SDS011;19323;56.072;9.698;2022-09-17T05:32:10;5.00;;;0.45;;
32641;SDS011;19323;56.072;9.698;2022-09-17T05:34:36;2.40;;;0.30;;
32641;SDS011;19323;56.072;9.698;2022-09-17T05:37:03;5.20;;;1.02;;
32641;SDS011;19323;56.072;9.698;2022-09-17T05:39:29;0.85;;;0.20;;
32641;SDS011;19323;56.072;9.698;2022-09-17T05:41:56;0.93;;;0.35;;
32641;SDS011;19323;56.072;9.698;2022-09-17T05:44:22;1.95;;;0.40;;
32641;SDS011;19323;56.072;9.698;2022-09-17T05:46:51;2.28;;;0.50;;
32641;SDS011;19323;56.072;9.698;2022-09-17T05:49:18;0.93;;;0.32;;
32641;SDS011;19323;56.072;9.698;2022-09-17T05:51:45;2.22;;;0.93;;
32641;SDS011;19323;56.072;9.698;2022-09-17T05:54:11;3.13;;;0.85;;
32641;SDS011;19323;56.072;9.698;2022-09-17T05:56:38;4.72;;;1.23;;
32641;SDS011;19323;56.072;9.698;2022-09-17T05:59:04;3.80;;;0.50;;
32641;SDS011;19323;56.072;9.698;2022-09-17T06:01:30;0.95;;;0.60;;
32641;SDS011;19323;56.072;9.698;2022-09-17T06:03:57;2.80;;;0.57;;
32641;SDS011;19323;56.072;9.698;2022-09-17T06:06:23;1.70;;;0.88;;
32641;SDS011;19323;56.072;9.698;2022-09-17T06:08:51;2.40;;;0.52;;
32641;SDS011;19323;56.072;9.698;2022-09-17T06:11:17;2.75;;;0.60;;
32641;SDS011;19323;56.072;9.698;2022-09-17T06:13:43;4.13;;;0.98;;
32641;SDS011;19323;56.072;9.698;2022-09-17T06:16:11;1.60;;;0.55;;
32641;SDS011;19323;56.072;9.698;2022-09-17T06:18:37;1.42;;;0.50;;
32641;SDS011;19323;56.072;9.698;2022-09-17T06:21:03;1.77;;;0.70;;
32641;SDS011;19323;56.072;9.698;2022-09-17T06:23:31;6.80;;;0.82;;
32641;SDS011;19323;56.072;9.698;2022-09-17T06:26:00;5.10;;;0.82;;
32641;SDS011;19323;56.072;9.698;2022-09-17T06:28:28;1.20;;;0.30;;
32641;SDS011;19323;56.072;9.698;2022-09-17T06:30:58;1.60;;;0.70;;
32641;SDS011;19323;56.072;9.698;2022-09-17T06:33:25;1.75;;;0.47;;
32641;SDS011;19323;56.072;9.698;2022-09-17T06:35:59;2.70;;;0.55;;
32641;SDS011;19323;56.072;9.698;2022-09-17T06:38:27;1.73;;;0.47;;
32641;SDS011;19323;56.072;9.698;2022-09-17T06:40:54;4.03;;;0.70;;
32641;SDS011;19323;56.072;9.698;2022-09-17T06:43:21;3.65;;;0.85;;
32641;SDS011;19323;56.072;9.698;2022-09-17T06:45:52;3.70;;;1.42;;
32641;SDS011;19323;56.072;9.698;2022-09-17T06:48:25;8.15;;;3.20;;
32641;SDS011;19323;56.072;9.698;2022-09-17T06:50:53;4.22;;;1.50;;
32641;SDS011;19323;56.072;9.698;2022-09-17T06:53:21;6.90;;;1.95;;
32641;SDS011;19323;56.072;9.698;2022-09-17T06:55:48;6.85;;;3.22;;
32641;SDS011;19323;56.072;9.698;2022-09-17T06:58:15;5.40;;;1.98;;
32641;SDS011;19323;56.072;9.698;2022-09-17T07:00:42;5.82;;;1.90;;
32641;SDS011;19323;56.072;9.698;2022-09-17T07:03:08;9.70;;;3.00;;
32641;SDS011;19323;56.072;9.698;2022-09-17T07:05:35;17.65;;;4.60;;
32641;SDS011;19323;56.072;9.698;2022-09-17T07:08:02;14.80;;;5.32;;
32641;SDS011;19323;56.072;9.698;2022-09-17T07:10:29;8.68;;;4.15;;
32641;SDS011;19323;56.072;9.698;2022-09-17T07:12:56;15.15;;;4.38;;
32641;SDS011;19323;56.072;9.698;2022-09-17T07:15:24;12.00;;;4.47;;
32641;SDS011;19323;56.072;9.698;2022-09-17T07:17:50;12.80;;;5.18;;
32641;SDS011;19323;56.072;9.698;2022-09-17T07:20:17;12.20;;;3.50;;
32641;SDS011;19323;56.072;9.698;2022-09-17T07:22:43;14.57;;;4.38;;
32641;SDS011;19323;56.072;9.698;2022-09-17T07:25:10;9.98;;;4.75;;
32641;SDS011;19323;56.072;9.698;2022-09-17T07:27:37;10.18;;;4.38;;
32641;SDS011;19323;56.072;9.698;2022-09-17T07:30:03;14.18;;;4.60;;
32641;SDS011;19323;56.072;9.698;2022-09-17T07:32:30;11.27;;;4.22;;
32641;SDS011;19323;56.072;9.698;2022-09-17T07:34:57;12.57;;;4.38;;
32641;SDS011;19323;56.072;9.698;2022-09-17T07:37:23;12.20;;;5.25;;
32641;SDS011;19323;56.072;9.698;2022-09-17T07:39:50;13.48;;;5.43;;
32641;SDS011;19323;56.072;9.698;2022-09-17T07:42:16;8.80;;;4.28;;
32641;SDS011;19323;56.072;9.698;2022-09-17T07:44:42;12.13;;;4.75;;
32641;SDS011;19323;56.072;9.698;2022-09-17T07:47:09;14.18;;;4.90;;
32641;SDS011;19323;56.072;9.698;2022-09-17T07:49:35;9.50;;;3.72;;
32641;SDS011;19323;56.072;9.698;2022-09-17T07:52:02;14.80;;;5.05;;
32641;SDS011;19323;56.072;9.698;2022-09-17T07:54:34;8.48;;;4.25;;
32641;SDS011;19323;56.072;9.698;2022-09-17T07:57:04;13.88;;;4.60;;
32641;SDS011;19323;56.072;9.698;2022-09-17T07:59:30;11.23;;;4.55;;
32641;SDS011;19323;56.072;9.698;2022-09-17T08:01:57;9.48;;;3.72;;
32641;SDS011;19323;56.072;9.698;2022-09-17T08:04:24;15.82;;;5.07;;
32641;SDS011;19323;56.072;9.698;2022-09-17T08:06:50;8.10;;;3.85;;
32641;SDS011;19323;56.072;9.698;2022-09-17T08:09:17;12.90;;;4.13;;
32641;SDS011;19323;56.072;9.698;2022-09-17T08:11:43;15.45;;;5.43;;
32641;SDS011;19323;56.072;9.698;2022-09-17T08:14:21;8.32;;;4.28;;
32641;SDS011;19323;56.072;9.698;2022-09-17T08:16:54;8.32;;;4.28;;
32641;SDS011;19323;56.072;9.698;2022-09-17T08:19:20;9.55;;;4.10;;
32641;SDS011;19323;56.072;9.698;2022-09-17T08:21:47;9.10;;;3.72;;
32641;SDS011;19323;56.072;9.698;2022-09-17T08:24:13;8.43;;;3.90;;
32641;SDS011;19323;56.072;9.698;2022-09-17T08:26:40;9.20;;;3.92;;
32641;SDS011;19323;56.072;9.698;2022-09-17T08:29:06;8.30;;;4.07;;
32641;SDS011;19323;56.072;9.698;2022-09-17T08:31:33;11.48;;;4.05;;
32641;SDS011;19323;56.072;9.698;2022-09-17T08:33:59;14.18;;;4.32;;
32641;SDS011;19323;56.072;9.698;2022-09-17T08:36:26;8.68;;;3.85;;
32641;SDS011;19323;56.072;9.698;2022-09-17T08:38:53;7.13;;;3.78;;
32641;SDS011;19323;56.072;9.698;2022-09-17T08:41:41;6.75;;;3.92;;
32641;SDS011;19323;56.072;9.698;2022-09-17T08:44:31;9.43;;;3.83;;
32641;SDS011;19323;56.072;9.698;2022-09-17T08:47:13;9.98;;;3.20;;
32641;SDS011;19323;56.072;9.698;2022-09-17T08:49:47;10.02;;;5.03;;
32641;SDS011;19323;56.072;9.698;2022-09-17T08:55:03;7.65;;;3.65;;
32641;SDS011;19323;56.072;9.698;2022-09-17T09:00:52;6.75;;;3.28;;
32641;SDS011;19323;56.072;9.698;2022-09-17T09:06:31;5.75;;;3.00;;
32641;SDS011;19323;56.072;9.698;2022-09-17T09:09:03;6.60;;;3.40;;
32641;SDS011;19323;56.072;9.698;2022-09-17T09:11:36;5.40;;;2.67;;
32641;SDS011;19323;56.072;9.698;2022-09-17T09:14:12;6.57;;;3.25;;
32641;SDS011;19323;56.072;9.698;2022-09-17T09:16:48;6.47;;;3.00;;
32641;SDS011;19323;56.072;9.698;2022-09-17T09:19:27;5.53;;;2.72;;
32641;SDS011;19323;56.072;9.698;2022-09-17T09:24:39;7.20;;;4.05;;
32641;SDS011;19323;56.072;9.698;2022-09-17T09:27:17;6.47;;;2.67;;
32641;SDS011;19323;56.072;9.698;2022-09-17T09:30:09;4.70;;;2.78;;
32641;SDS011;19323;56.072;9.698;2022-09-17T09:37:49;4.97;;;2.42;;
32641;SDS011;19323;56.072;9.698;2022-09-17T09:40:57;4.22;;;2.47;;
32641;SDS011;19323;56.072;9.698;2022-09-17T09:43:42;3.83;;;1.95;;
32641;SDS011;19323;56.072;9.698;2022-09-17T09:49:24;2.78;;;1.80;;
32641;SDS011;19323;56.072;9.698;2022-09-17T09:55:24;4.15;;;2.47;;
32641;SDS011;19323;56.072;9.698;2022-09-17T10:03:25;3.95;;;2.28;;
32641;SDS011;19323;56.072;9.698;2022-09-17T10:06:00;4.00;;;2.00;;
32641;SDS011;19323;56.072;9.698;2022-09-17T10:08:32;4.25;;;2.03;;
32641;SDS011;19323;56.072;9.698;2022-09-17T10:11:04;3.47;;;1.60;;
32641;SDS011;19323;56.072;9.698;2022-09-17T10:13:34;7.63;;;2.10;;
32641;SDS011;19323;56.072;9.698;2022-09-17T10:18:42;2.47;;;1.40;;
32641;SDS011;19323;56.072;9.698;2022-09-17T10:21:17;3.45;;;1.90;;
32641;SDS011;19323;56.072;9.698;2022-09-17T10:23:44;3.10;;;1.92;;
32641;SDS011;19323;56.072;9.698;2022-09-17T10:26:25;4.55;;;2.28;;
32641;SDS011;19323;56.072;9.698;2022-09-17T10:28:56;3.30;;;1.98;;
32641;SDS011;19323;56.072;9.698;2022-09-17T10:31:25;3.10;;;2.00;;
32641;SDS011;19323;56.072;9.698;2022-09-17T10:36:41;2.78;;;2.08;;
32641;SDS011;19323;56.072;9.698;2022-09-17T10:44:28;2.85;;;1.52;;
32641;SDS011;19323;56.072;9.698;2022-09-17T10:47:04;2.80;;;1.88;;
32641;SDS011;19323;56.072;9.698;2022-09-17T10:49:42;2.67;;;2.10;;
32641;SDS011;19323;56.072;9.698;2022-09-17T10:52:18;3.67;;;2.03;;
32641;SDS011;19323;56.072;9.698;2022-09-17T10:54:58;2.42;;;1.58;;
32641;SDS011;19323;56.072;9.698;2022-09-17T10:57:46;3.08;;;1.73;;
32641;SDS011;19323;56.072;9.698;2022-09-17T11:00:23;3.80;;;1.63;;
32641;SDS011;19323;56.072;9.698;2022-09-17T11:16:47;1.50;;;1.20;;
32641;SDS011;19323;56.072;9.698;2022-09-17T11:22:15;2.35;;;1.30;;
32641;SDS011;19323;56.072;9.698;2022-09-17T11:25:02;2.28;;;0.82;;
32641;SDS011;19323;56.072;9.698;2022-09-17T11:30:15;2.63;;;1.23;;
32641;SDS011;19323;56.072;9.698;2022-09-17T11:32:48;1.55;;;1.05;;
32641;SDS011;19323;56.072;9.698;2022-09-17T11:38:04;2.15;;;1.38;;
32641;SDS011;19323;56.072;9.698;2022-09-17T11:40:39;1.38;;;0.93;;
32641;SDS011;19323;56.072;9.698;2022-09-17T11:43:12;1.88;;;0.90;;
32641;SDS011;19323;56.072;9.698;2022-09-17T11:45:51;1.05;;;0.55;;
32641;SDS011;19323;56.072;9.698;2022-09-17T11:48:21;1.58;;;0.82;;
32641;SDS011;19323;56.072;9.698;2022-09-17T11:50:56;2.25;;;1.13;;
32641;SDS011;19323;56.072;9.698;2022-09-17T11:53:29;3.13;;;1.05;;
32641;SDS011;19323;56.072;9.698;2022-09-17T11:56:04;1.42;;;0.75;;
32641;SDS011;19323;56.072;9.698;2022-09-17T11:58:57;1.60;;;1.02;;
32641;SDS011;19323;56.072;9.698;2022-09-17T12:24:42;1.27;;;0.70;;
32641;SDS011;19323;56.072;9.698;2022-09-17T12:27:24;1.63;;;0.85;;
32641;SDS011;19323;56.072;9.698;2022-09-17T13:00:35;1.70;;;0.75;;
32641;SDS011;19323;56.072;9.698;2022-09-17T13:03:11;1.10;;;0.55;;
32641;SDS011;19323;56.072;9.698;2022-09-17T13:11:22;0.90;;;0.70;;
32641;SDS011;19323;56.072;9.698;2022-09-17T13:17:04;1.80;;;0.90;;
32641;SDS011;19323;56.072;9.698;2022-09-17T13:22:18;2.50;;;0.50;;
32641;SDS011;19323;56.072;9.698;2022-09-17T13:24:47;1.65;;;0.80;;
32641;SDS011;19323;56.072;9.698;2022-09-17T13:27:28;1.50;;;0.80;;
32641;SDS011;19323;56.072;9.698;2022-09-17T13:37:37;1.20;;;0.50;;
32641;SDS011;19323;56.072;9.698;2022-09-17T13:40:32;0.90;;;0.50;;
32641;SDS011;19323;56.072;9.698;2022-09-17T13:45:31;1.35;;;0.60;;
32641;SDS011;19323;56.072;9.698;2022-09-17T13:48:01;1.30;;;0.55;;
32641;SDS011;19323;56.072;9.698;2022-09-17T13:53:26;0.70;;;0.57;;
32641;SDS011;19323;56.072;9.698;2022-09-17T13:55:56;0.73;;;0.35;;
32641;SDS011;19323;56.072;9.698;2022-09-17T13:58:25;0.88;;;0.30;;
32641;SDS011;19323;56.072;9.698;2022-09-17T14:00:59;2.55;;;0.50;;
32641;SDS011;19323;56.072;9.698;2022-09-17T14:05:56;0.60;;;0.40;;
32641;SDS011;19323;56.072;9.698;2022-09-17T14:08:47;0.90;;;0.20;;
32641;SDS011;19323;56.072;9.698;2022-09-17T14:16:22;1.25;;;0.30;;
32641;SDS011;19323;56.072;9.698;2022-09-17T14:18:55;1.40;;;0.35;;
32641;SDS011;19323;56.072;9.698;2022-09-17T14:21:31;0.95;;;0.35;;
32641;SDS011;19323;56.072;9.698;2022-09-17T14:24:02;0.82;;;0.40;;
32641;SDS011;19323;56.072;9.698;2022-09-17T14:32:31;0.70;;;0.40;;
32641;SDS011;19323;56.072;9.698;2022-09-17T14:35:11;0.60;;;0.22;;
32641;SDS011;19323;56.072;9.698;2022-09-17T14:37:46;0.98;;;0.30;;
32641;SDS011;19323;56.072;9.698;2022-09-17T14:40:18;0.45;;;0.17;;
32641;SDS011;19323;56.072;9.698;2022-09-17T14:42:50;0.50;;;0.20;;
32641;SDS011;19323;56.072;9.698;2022-09-17T14:53:48;1.08;;;0.30;;
32641;SDS011;19323;56.072;9.698;2022-09-17T14:56:32;1.10;;;0.63;;
32641;SDS011;19323;56.072;9.698;2022-09-17T14:59:01;0.43;;;0.20;;
32641;SDS011;19323;56.072;9.698;2022-09-17T15:01:28;1.33;;;0.47;;
32641;SDS011;19323;56.072;9.698;2022-09-17T15:06:38;1.52;;;0.30;;
32641;SDS011;19323;56.072;9.698;2022-09-17T15:09:14;1.05;;;0.50;;
32641;SDS011;19323;56.072;9.698;2022-09-17T15:11:42;1.58;;;0.50;;
32641;SDS011;19323;56.072;9.698;2022-09-17T15:14:13;0.40;;;0.20;;
32641;SDS011;19323;56.072;9.698;2022-09-17T15:16:53;0.55;;;0.22;;
32641;SDS011;19323;56.072;9.698;2022-09-17T15:19:32;0.68;;;0.20;;
32641;SDS011;19323;56.072;9.698;2022-09-17T15:22:21;0.70;;;0.30;;
32641;SDS011;19323;56.072;9.698;2022-09-17T15:24:55;0.95;;;0.20;;
32641;SDS011;19323;56.072;9.698;2022-09-17T15:27:30;0.50;;;0.20;;
32641;SDS011;19323;56.072;9.698;2022-09-17T15:30:01;0.35;;;0.17;;
32641;SDS011;19323;56.072;9.698;2022-09-17T15:32:37;0.55;;;0.22;;
32641;SDS011;19323;56.072;9.698;2022-09-17T15:37:48;0.50;;;0.25;;
32641;SDS011;19323;56.072;9.698;2022-09-17T15:40:37;0.20;;;0.10;;
32641;SDS011;19323;56.072;9.698;2022-09-17T15:43:14;1.95;;;0.70;;
32641;SDS011;19323;56.072;9.698;2022-09-17T15:45:41;0.40;;;0.20;;
32641;SDS011;19323;56.072;9.698;2022-09-17T15:50:54;1.45;;;0.40;;
32641;SDS011;19323;56.072;9.698;2022-09-17T15:53:25;0.77;;;0.38;;
32641;SDS011;19323;56.072;9.698;2022-09-17T15:56:15;0.57;;;0.30;;
32641;SDS011;19323;56.072;9.698;2022-09-17T16:08:53;0.55;;;0.22;;
32641;SDS011;19323;56.072;9.698;2022-09-17T16:11:30;0.40;;;0.20;;
32641;SDS011;19323;56.072;9.698;2022-09-17T16:13:58;1.40;;;0.32;;
32641;SDS011;19323;56.072;9.698;2022-09-17T16:16:32;1.55;;;0.63;;
32641;SDS011;19323;56.072;9.698;2022-09-17T16:19:00;0.32;;;0.20;;
32641;SDS011;19323;56.072;9.698;2022-09-17T16:21:26;0.77;;;0.28;;
32641;SDS011;19323;56.072;9.698;2022-09-17T16:23:54;0.60;;;0.35;;
32641;SDS011;19323;56.072;9.698;2022-09-17T16:26:21;2.10;;;0.28;;
32641;SDS011;19323;56.072;9.698;2022-09-17T16:28:51;3.05;;;0.28;;
32641;SDS011;19323;56.072;9.698;2022-09-17T16:31:19;0.88;;;0.47;;
32641;SDS011;19323;56.072;9.698;2022-09-17T16:33:46;1.95;;;0.30;;
32641;SDS011;19323;56.072;9.698;2022-09-17T16:36:14;1.05;;;0.20;;
32641;SDS011;19323;56.072;9.698;2022-09-17T16:38:41;1.20;;;0.30;;
32641;SDS011;19323;56.072;9.698;2022-09-17T16:41:08;0.65;;;0.30;;
32641;SDS011;19323;56.072;9.698;2022-09-17T16:43:36;0.63;;;0.30;;
32641;SDS011;19323;56.072;9.698;2022-09-17T16:46:04;1.15;;;0.20;;
32641;SDS011;19323;56.072;9.698;2022-09-17T16:48:36;0.80;;;0.20;;
32641;SDS011;19323;56.072;9.698;2022-09-17T16:51:06;4.22;;;0.57;;
32641;SDS011;19323;56.072;9.698;2022-09-17T16:53:34;1.10;;;0.30;;
32641;SDS011;19323;56.072;9.698;2022-09-17T16:56:00;1.08;;;0.40;;
32641;SDS011;19323;56.072;9.698;2022-09-17T16:58:31;0.75;;;0.20;;
32641;SDS011;19323;56.072;9.698;2022-09-17T17:00:58;1.65;;;0.30;;
32641;SDS011;19323;56.072;9.698;2022-09-17T17:03:25;0.90;;;0.38;;
32641;SDS011;19323;56.072;9.698;2022-09-17T17:05:52;1.17;;;0.40;;
32641;SDS011;19323;56.072;9.698;2022-09-17T17:08:18;2.95;;;0.30;;
32641;SDS011;19323;56.072;9.698;2022-09-17T17:10:45;4.18;;;0.40;;
32641;SDS011;19323;56.072;9.698;2022-09-17T17:13:14;0.85;;;0.30;;
32641;SDS011;19323;56.072;9.698;2022-09-17T17:15:41;0.45;;;0.30;;
32641;SDS011;19323;56.072;9.698;2022-09-17T17:18:07;2.05;;;0.32;;
32641;SDS011;19323;56.072;9.698;2022-09-17T17:20:34;1.20;;;0.20;;
32641;SDS011;19323;56.072;9.698;2022-09-17T17:23:01;0.65;;;0.15;;
32641;SDS011;19323;56.072;9.698;2022-09-17T17:25:28;1.38;;;0.20;;
32641;SDS011;19323;56.072;9.698;2022-09-17T17:27:56;0.77;;;0.22;;
32641;SDS011;19323;56.072;9.698;2022-09-17T17:30:22;0.93;;;0.40;;
32641;SDS011;19323;56.072;9.698;2022-09-17T17:32:50;0.80;;;0.38;;
32641;SDS011;19323;56.072;9.698;2022-09-17T17:35:18;1.27;;;0.40;;
32641;SDS011;19323;56.072;9.698;2022-09-17T17:37:45;0.50;;;0.20;;
32641;SDS011;19323;56.072;9.698;2022-09-17T17:40:13;0.82;;;0.17;;
32641;SDS011;19323;56.072;9.698;2022-09-17T17:42:39;0.80;;;0.25;;
32641;SDS011;19323;56.072;9.698;2022-09-17T17:45:09;0.38;;;0.20;;
32641;SDS011;19323;56.072;9.698;2022-09-17T17:47:35;0.65;;;0.47;;
32641;SDS011;19323;56.072;9.698;2022-09-17T17:50:02;0.68;;;0.25;;
32641;SDS011;19323;56.072;9.698;2022-09-17T17:52:29;1.92;;;0.52;;
32641;SDS011;19323;56.072;9.698;2022-09-17T17:54:56;1.13;;;0.35;;
32641;SDS011;19323;56.072;9.698;2022-09-17T17:57:23;0.68;;;0.20;;
32641;SDS011;19323;56.072;9.698;2022-09-17T17:59:50;0.52;;;0.30;;
32641;SDS011;19323;56.072;9.698;2022-09-17T18:02:16;0.82;;;0.30;;
32641;SDS011;19323;56.072;9.698;2022-09-17T18:04:43;0.88;;;0.40;;
32641;SDS011;19323;56.072;9.698;2022-09-17T18:07:09;1.27;;;0.30;;
32641;SDS011;19323;56.072;9.698;2022-09-17T18:09:35;0.85;;;0.20;;
32641;SDS011;19323;56.072;9.698;2022-09-17T18:12:02;0.82;;;0.40;;
32641;SDS011;19323;56.072;9.698;2022-09-17T18:14:29;1.10;;;0.47;;
32641;SDS011;19323;56.072;9.698;2022-09-17T18:16:55;0.60;;;0.30;;
32641;SDS011;19323;56.072;9.698;2022-09-17T18:19:21;0.90;;;0.30;;
32641;SDS011;19323;56.072;9.698;2022-09-17T18:21:48;0.63;;;0.30;;
32641;SDS011;19323;56.072;9.698;2022-09-17T18:24:14;0.65;;;0.25;;
32641;SDS011;19323;56.072;9.698;2022-09-17T18:26:41;0.73;;;0.25;;
32641;SDS011;19323;56.072;9.698;2022-09-17T18:29:07;0.25;;;0.20;;
32641;SDS011;19323;56.072;9.698;2022-09-17T18:31:34;0.73;;;0.30;;
32641;SDS011;19323;56.072;9.698;2022-09-17T18:34:11;1.75;;;0.47;;
32641;SDS011;19323;56.072;9.698;2022-09-17T18:36:39;0.77;;;0.20;;
32641;SDS011;19323;56.072;9.698;2022-09-17T18:39:09;1.15;;;0.50;;
32641;SDS011;19323;56.072;9.698;2022-09-17T18:41:59;0.80;;;0.30;;
32641;SDS011;19323;56.072;9.698;2022-09-17T18:44:26;1.60;;;0.50;;
32641;SDS011;19323;56.072;9.698;2022-09-17T18:46:52;0.70;;;0.20;;